Millheim, Texas
Current Conditions -  °F | °C
As of 4:55 PM on Friday 28 Nov 2014 (Local Time) from KELA Reporting Station
Clear Clear  
Wind Chill: 21°   Ceiling: Unl
Heat Index: 21°   Visibility: 10mi
Dew Point: 13°   Wind: 10mph
Humidity: 59%   Direction: 200°SSW
Pressure: 30.15"   Gusts: NA
Location:  29.7835°N, 96.2064°W
Report Text: KELA 282255Z AUTO 20009KT 10SM CLR 21/13 A3015 RMK AO2 T02100126
Loading
Personal Weather Stations






























Interactive Weather Map New forecast layout! Learn more

10-Day Weather Forecast

Advertisements
Track Severe Weather on mobile